sensor_id;sensor_type;location;lat;lon;timestamp;pressure;altitude;pressure_sealevel;temperature;humidity
71126;BME280;58785;55.566;38.058;2023-05-07T00:01:49;101359.88;;;2.32;62.66
71126;BME280;58785;55.566;38.058;2023-05-07T00:04:15;101359.06;;;2.29;62.41
71126;BME280;58785;55.566;38.058;2023-05-07T00:06:40;101362.69;;;2.27;62.79
71126;BME280;58785;55.566;38.058;2023-05-07T00:09:06;101369.03;;;2.23;62.61
71126;BME280;58785;55.566;38.058;2023-05-07T00:11:33;101362.03;;;2.22;62.83
71126;BME280;58785;55.566;38.058;2023-05-07T00:13:59;101359.41;;;2.22;63.19
71126;BME280;58785;55.566;38.058;2023-05-07T00:16:25;101366.38;;;2.23;63.11
71126;BME280;58785;55.566;38.058;2023-05-07T00:18:50;101361.22;;;2.20;63.17
71126;BME280;58785;55.566;38.058;2023-05-07T00:21:16;101354.31;;;2.17;63.01
71126;BME280;58785;55.566;38.058;2023-05-07T00:23:42;101355.25;;;2.16;63.25
71126;BME280;58785;55.566;38.058;2023-05-07T00:26:07;101361.19;;;2.21;62.70
71126;BME280;58785;55.566;38.058;2023-05-07T00:28:33;101371.72;;;2.21;62.90
71126;BME280;58785;55.566;38.058;2023-05-07T00:30:59;101366.50;;;2.20;63.02
71126;BME280;58785;55.566;38.058;2023-05-07T00:33:24;101376.28;;;2.16;63.09
71126;BME280;58785;55.566;38.058;2023-05-07T00:35:52;101369.41;;;2.14;63.27
71126;BME280;58785;55.566;38.058;2023-05-07T00:38:19;101357.47;;;2.05;63.30
71126;BME280;58785;55.566;38.058;2023-05-07T00:40:45;101364.50;;;2.05;63.48
71126;BME280;58785;55.566;38.058;2023-05-07T00:43:11;101373.19;;;2.07;63.80
71126;BME280;58785;55.566;38.058;2023-05-07T00:45:38;101369.03;;;2.01;63.77
71126;BME280;58785;55.566;38.058;2023-05-07T00:48:04;101368.91;;;2.04;63.82
71126;BME280;58785;55.566;38.058;2023-05-07T00:50:31;101372.53;;;2.01;63.50
71126;BME280;58785;55.566;38.058;2023-05-07T00:52:58;101366.44;;;1.99;63.65
71126;BME280;58785;55.566;38.058;2023-05-07T00:55:24;101359.69;;;1.94;63.95
71126;BME280;58785;55.566;38.058;2023-05-07T00:57:50;101374.41;;;1.98;63.87
71126;BME280;58785;55.566;38.058;2023-05-07T01:00:16;101368.56;;;1.91;63.64
71126;BME280;58785;55.566;38.058;2023-05-07T01:02:43;101371.13;;;1.93;64.00
71126;BME280;58785;55.566;38.058;2023-05-07T01:05:13;101369.34;;;1.93;64.12
71126;BME280;58785;55.566;38.058;2023-05-07T01:07:41;101370.25;;;1.92;63.89
71126;BME280;58785;55.566;38.058;2023-05-07T01:10:08;101379.06;;;1.91;64.13
71126;BME280;58785;55.566;38.058;2023-05-07T01:12:36;101358.41;;;1.82;63.97
71126;BME280;58785;55.566;38.058;2023-05-07T01:15:03;101386.22;;;1.88;64.00
71126;BME280;58785;55.566;38.058;2023-05-07T01:17:34;101355.16;;;1.76;64.42
71126;BME280;58785;55.566;38.058;2023-05-07T01:20:01;101377.47;;;1.87;64.51
71126;BME280;58785;55.566;38.058;2023-05-07T01:22:33;101377.59;;;1.84;63.94
71126;BME280;58785;55.566;38.058;2023-05-07T01:25:00;101383.72;;;1.85;64.23
71126;BME280;58785;55.566;38.058;2023-05-07T01:27:27;101385.50;;;1.84;64.10
71126;BME280;58785;55.566;38.058;2023-05-07T01:29:53;101388.91;;;1.86;64.50
71126;BME280;58785;55.566;38.058;2023-05-07T01:32:22;101394.09;;;1.88;64.71
71126;BME280;58785;55.566;38.058;2023-05-07T01:34:52;101390.63;;;1.87;64.89
71126;BME280;58785;55.566;38.058;2023-05-07T01:37:20;101384.69;;;1.82;64.70
71126;BME280;58785;55.566;38.058;2023-05-07T01:39:47;101390.56;;;1.89;64.93
71126;BME280;58785;55.566;38.058;2023-05-07T01:42:13;101392.25;;;1.90;64.75
71126;BME280;58785;55.566;38.058;2023-05-07T01:44:39;101392.09;;;1.94;65.03
71126;BME280;58785;55.566;38.058;2023-05-07T01:47:06;101386.22;;;1.88;65.07
71126;BME280;58785;55.566;38.058;2023-05-07T01:49:31;101394.66;;;1.96;64.83
71126;BME280;58785;55.566;38.058;2023-05-07T01:51:58;101401.50;;;2.00;64.90
71126;BME280;58785;55.566;38.058;2023-05-07T01:54:27;101402.25;;;2.04;64.91
71126;BME280;58785;55.566;38.058;2023-05-07T01:56:54;101410.81;;;2.09;65.11
71126;BME280;58785;55.566;38.058;2023-05-07T01:59:20;101400.22;;;2.10;64.65
71126;BME280;58785;55.566;38.058;2023-05-07T02:01:46;101425.22;;;2.20;64.78
71126;BME280;58785;55.566;38.058;2023-05-07T02:04:12;101417.31;;;2.22;64.99
71126;BME280;58785;55.566;38.058;2023-05-07T02:06:38;101406.66;;;2.25;64.77
71126;BME280;58785;55.566;38.058;2023-05-07T02:09:04;101420.09;;;2.39;64.79
71126;BME280;58785;55.566;38.058;2023-05-07T02:11:30;101414.44;;;2.48;64.70
71126;BME280;58785;55.566;38.058;2023-05-07T02:13:55;101426.97;;;2.64;64.15
71126;BME280;58785;55.566;38.058;2023-05-07T02:16:21;101432.31;;;2.82;63.89
71126;BME280;58785;55.566;38.058;2023-05-07T02:18:48;101424.28;;;2.85;63.83
71126;BME280;58785;55.566;38.058;2023-05-07T02:21:14;101443.09;;;2.97;63.97
71126;BME280;58785;55.566;38.058;2023-05-07T02:23:40;101431.19;;;3.08;63.50
71126;BME280;58785;55.566;38.058;2023-05-07T02:26:06;101437.88;;;3.36;63.18
71126;BME280;58785;55.566;38.058;2023-05-07T02:28:31;101432.06;;;3.67;62.69
71126;BME280;58785;55.566;38.058;2023-05-07T02:30:57;101440.38;;;4.14;62.45
71126;BME280;58785;55.566;38.058;2023-05-07T02:33:25;101443.63;;;4.55;61.40
71126;BME280;58785;55.566;38.058;2023-05-07T02:35:50;101442.72;;;4.91;61.37
71126;BME280;58785;55.566;38.058;2023-05-07T02:38:17;101450.59;;;5.26;61.19
71126;BME280;58785;55.566;38.058;2023-05-07T02:40:43;101445.38;;;5.57;61.14
71126;BME280;58785;55.566;38.058;2023-05-07T02:43:09;101447.38;;;5.85;60.42
71126;BME280;58785;55.566;38.058;2023-05-07T02:45:35;101449.41;;;6.13;60.11
71126;BME280;58785;55.566;38.058;2023-05-07T02:48:03;101454.75;;;6.43;60.08
71126;BME280;58785;55.566;38.058;2023-05-07T02:50:29;101456.72;;;6.70;59.86
71126;BME280;58785;55.566;38.058;2023-05-07T02:52:55;101450.44;;;6.86;59.01
71126;BME280;58785;55.566;38.058;2023-05-07T02:55:21;101452.28;;;7.00;58.92
71126;BME280;58785;55.566;38.058;2023-05-07T02:57:46;101449.66;;;7.14;58.62
71126;BME280;58785;55.566;38.058;2023-05-07T03:00:16;101460.78;;;7.35;58.78
71126;BME280;58785;55.566;38.058;2023-05-07T03:02:43;101460.66;;;7.51;57.99
71126;BME280;58785;55.566;38.058;2023-05-07T03:05:09;101451.88;;;7.65;58.16
71126;BME280;58785;55.566;38.058;2023-05-07T03:07:36;101463.69;;;7.88;57.52
71126;BME280;58785;55.566;38.058;2023-05-07T03:10:02;101465.06;;;8.07;57.22
71126;BME280;58785;55.566;38.058;2023-05-07T03:12:30;101459.66;;;8.23;56.68
71126;BME280;58785;55.566;38.058;2023-05-07T03:14:56;101466.44;;;8.42;55.90
71126;BME280;58785;55.566;38.058;2023-05-07T03:17:22;101462.88;;;8.55;55.56
71126;BME280;58785;55.566;38.058;2023-05-07T03:19:48;101462.38;;;8.63;55.72
71126;BME280;58785;55.566;38.058;2023-05-07T03:22:14;101464.69;;;8.82;54.83
71126;BME280;58785;55.566;38.058;2023-05-07T03:24:40;101475.34;;;9.07;54.47
71126;BME280;58785;55.566;38.058;2023-05-07T03:27:05;101477.47;;;9.02;54.16
71126;BME280;58785;55.566;38.058;2023-05-07T03:29:31;101482.34;;;8.96;54.10
71126;BME280;58785;55.566;38.058;2023-05-07T03:31:57;101483.41;;;8.93;54.46
71126;BME280;58785;55.566;38.058;2023-05-07T03:34:22;101492.50;;;9.03;54.35
71126;BME280;58785;55.566;38.058;2023-05-07T03:36:48;101494.53;;;9.25;53.36
71126;BME280;58785;55.566;38.058;2023-05-07T03:39:14;101486.13;;;9.44;52.89
71126;BME280;58785;55.566;38.058;2023-05-07T03:41:40;101493.69;;;9.63;52.70
71126;BME280;58785;55.566;38.058;2023-05-07T03:44:06;101489.31;;;9.74;52.35
71126;BME280;58785;55.566;38.058;2023-05-07T03:46:31;101484.19;;;9.84;52.03
71126;BME280;58785;55.566;38.058;2023-05-07T03:48:58;101489.84;;;9.92;51.52
71126;BME280;58785;55.566;38.058;2023-05-07T03:51:24;101474.69;;;9.93;51.38
71126;BME280;58785;55.566;38.058;2023-05-07T03:53:50;101499.06;;;10.12;51.35
71126;BME280;58785;55.566;38.058;2023-05-07T03:56:18;101494.13;;;10.19;50.66
71126;BME280;58785;55.566;38.058;2023-05-07T03:58:44;101495.81;;;9.45;50.58
71126;BME280;58785;55.566;38.058;2023-05-07T04:01:10;101505.91;;;9.14;51.48
71126;BME280;58785;55.566;38.058;2023-05-07T04:03:37;101501.09;;;9.07;51.36
71126;BME280;58785;55.566;38.058;2023-05-07T04:06:03;101498.78;;;9.15;51.13
71126;BME280;58785;55.566;38.058;2023-05-07T04:08:28;101519.44;;;9.24;51.08
71126;BME280;58785;55.566;38.058;2023-05-07T04:10:55;101511.75;;;9.07;50.58
71126;BME280;58785;55.566;38.058;2023-05-07T04:13:21;101515.38;;;8.79;50.79
71126;BME280;58785;55.566;38.058;2023-05-07T04:15:46;101517.41;;;8.75;50.78
71126;BME280;58785;55.566;38.058;2023-05-07T04:18:14;101522.38;;;8.67;50.68
71126;BME280;58785;55.566;38.058;2023-05-07T04:20:40;101506.75;;;8.48;51.03
71126;BME280;58785;55.566;38.058;2023-05-07T04:23:05;101528.59;;;8.80;50.44
71126;BME280;58785;55.566;38.058;2023-05-07T04:25:31;101530.25;;;8.96;50.09
71126;BME280;58785;55.566;38.058;2023-05-07T04:27:56;101519.41;;;9.11;50.14
71126;BME280;58785;55.566;38.058;2023-05-07T04:30:22;101515.72;;;9.27;49.24
71126;BME280;58785;55.566;38.058;2023-05-07T04:32:48;101524.38;;;9.43;49.15
71126;BME280;58785;55.566;38.058;2023-05-07T04:35:13;101533.09;;;9.58;48.90
71126;BME280;58785;55.566;38.058;2023-05-07T04:37:39;101528.97;;;9.54;49.09
71126;BME280;58785;55.566;38.058;2023-05-07T04:40:05;101532.44;;;9.41;49.09
71126;BME280;58785;55.566;38.058;2023-05-07T04:42:32;101540.03;;;9.73;48.79
71126;BME280;58785;55.566;38.058;2023-05-07T04:44:58;101527.97;;;9.80;48.23
71126;BME280;58785;55.566;38.058;2023-05-07T04:47:23;101543.53;;;9.61;48.36
71126;BME280;58785;55.566;38.058;2023-05-07T04:49:49;101517.75;;;9.48;48.25
71126;BME280;58785;55.566;38.058;2023-05-07T04:52:15;101520.75;;;9.69;48.44
71126;BME280;58785;55.566;38.058;2023-05-07T04:54:41;101534.59;;;9.87;48.09
71126;BME280;58785;55.566;38.058;2023-05-07T04:57:06;101522.84;;;9.90;47.72
71126;BME280;58785;55.566;38.058;2023-05-07T04:59:32;101532.25;;;9.83;46.94
71126;BME280;58785;55.566;38.058;2023-05-07T05:01:58;101539.06;;;9.48;47.05
71126;BME280;58785;55.566;38.058;2023-05-07T05:04:24;101525.09;;;9.32;47.40
71126;BME280;58785;55.566;38.058;2023-05-07T05:06:49;101538.09;;;9.24;47.53
71126;BME280;58785;55.566;38.058;2023-05-07T05:09:15;101537.72;;;9.03;47.82
71126;BME280;58785;55.566;38.058;2023-05-07T05:11:41;101530.34;;;8.94;47.91
71126;BME280;58785;55.566;38.058;2023-05-07T05:14:07;101526.00;;;8.66;47.62
71126;BME280;58785;55.566;38.058;2023-05-07T05:16:33;101526.69;;;8.82;47.60
71126;BME280;58785;55.566;38.058;2023-05-07T05:18:59;101530.25;;;8.69;48.04
71126;BME280;58785;55.566;38.058;2023-05-07T05:21:25;101529.25;;;8.57;47.84
71126;BME280;58785;55.566;38.058;2023-05-07T05:23:50;101532.88;;;8.42;47.73
71126;BME280;58785;55.566;38.058;2023-05-07T05:26:16;101538.91;;;8.58;47.22
71126;BME280;58785;55.566;38.058;2023-05-07T05:28:42;101536.84;;;8.63;46.53
71126;BME280;58785;55.566;38.058;2023-05-07T05:31:07;101537.94;;;8.73;46.26
71126;BME280;58785;55.566;38.058;2023-05-07T05:33:33;101541.63;;;8.98;45.86
71126;BME280;58785;55.566;38.058;2023-05-07T05:35:59;101540.13;;;9.33;44.95
71126;BME280;58785;55.566;38.058;2023-05-07T05:38:25;101552.03;;;9.28;43.85
71126;BME280;58785;55.566;38.058;2023-05-07T05:40:51;101559.88;;;9.16;44.33
71126;BME280;58785;55.566;38.058;2023-05-07T05:43:16;101562.88;;;9.12;44.43
71126;BME280;58785;55.566;38.058;2023-05-07T05:45:42;101554.06;;;9.24;44.18
71126;BME280;58785;55.566;38.058;2023-05-07T05:48:08;101552.94;;;9.54;43.63
71126;BME280;58785;55.566;38.058;2023-05-07T05:50:34;101561.31;;;9.98;43.80
71126;BME280;58785;55.566;38.058;2023-05-07T05:53:02;101558.91;;;9.83;43.14
71126;BME280;58785;55.566;38.058;2023-05-07T05:55:28;101560.78;;;10.06;43.41
71126;BME280;58785;55.566;38.058;2023-05-07T05:57:54;101556.69;;;10.39;42.98
71126;BME280;58785;55.566;38.058;2023-05-07T06:00:20;101567.56;;;10.72;43.03
71126;BME280;58785;55.566;38.058;2023-05-07T06:02:48;101561.31;;;10.73;42.11
71126;BME280;58785;55.566;38.058;2023-05-07T06:05:14;101573.16;;;10.69;41.10
71126;BME280;58785;55.566;38.058;2023-05-07T06:07:40;101558.00;;;10.70;41.74
71126;BME280;58785;55.566;38.058;2023-05-07T06:10:07;101566.19;;;11.03;41.89
71126;BME280;58785;55.566;38.058;2023-05-07T06:12:33;101572.75;;;11.10;40.85
71126;BME280;58785;55.566;38.058;2023-05-07T06:14:58;101561.41;;;10.96;40.67
71126;BME280;58785;55.566;38.058;2023-05-07T06:17:24;101578.38;;;10.94;40.57
71126;BME280;58785;55.566;38.058;2023-05-07T06:19:51;101567.25;;;11.01;40.74
71126;BME280;58785;55.566;38.058;2023-05-07T06:22:16;101579.13;;;10.97;40.30
71126;BME280;58785;55.566;38.058;2023-05-07T06:24:42;101571.84;;;10.38;41.00
71126;BME280;58785;55.566;38.058;2023-05-07T06:27:08;101571.03;;;9.99;41.52
71126;BME280;58785;55.566;38.058;2023-05-07T06:29:34;101581.59;;;9.88;40.06
71126;BME280;58785;55.566;38.058;2023-05-07T06:32:13;101560.28;;;9.75;40.27
71126;BME280;58785;55.566;38.058;2023-05-07T06:34:39;101574.44;;;10.14;40.81
71126;BME280;58785;55.566;38.058;2023-05-07T06:37:06;101574.56;;;10.25;39.68
71126;BME280;58785;55.566;38.058;2023-05-07T06:39:32;101575.28;;;10.02;39.37
71126;BME280;58785;55.566;38.058;2023-05-07T06:42:00;101560.25;;;10.01;40.09
71126;BME280;58785;55.566;38.058;2023-05-07T06:44:27;101572.31;;;9.68;40.71
71126;BME280;58785;55.566;38.058;2023-05-07T06:46:53;101568.31;;;9.23;41.47
71126;BME280;58785;55.566;38.058;2023-05-07T06:49:19;101569.53;;;9.05;42.07
71126;BME280;58785;55.566;38.058;2023-05-07T06:51:46;101580.34;;;9.29;42.14
71126;BME280;58785;55.566;38.058;2023-05-07T06:54:12;101581.59;;;9.88;41.36
71126;BME280;58785;55.566;38.058;2023-05-07T06:56:37;101592.22;;;10.01;40.65
71126;BME280;58785;55.566;38.058;2023-05-07T06:59:04;101576.03;;;10.17;40.26
71126;BME280;58785;55.566;38.058;2023-05-07T07:01:30;101568.28;;;10.50;39.68
71126;BME280;58785;55.566;38.058;2023-05-07T07:03:56;101569.06;;;10.52;39.73
71126;BME280;58785;55.566;38.058;2023-05-07T07:06:22;101568.94;;;10.78;39.76
71126;BME280;58785;55.566;38.058;2023-05-07T07:08:48;101563.09;;;10.97;40.30
71126;BME280;58785;55.566;38.058;2023-05-07T07:11:15;101547.88;;;11.10;40.49
71126;BME280;58785;55.566;38.058;2023-05-07T07:13:41;101552.81;;;10.79;40.43
71126;BME280;58785;55.566;38.058;2023-05-07T07:16:08;101555.66;;;10.28;40.96
71126;BME280;58785;55.566;38.058;2023-05-07T07:18:34;101567.91;;;10.18;41.08
71126;BME280;58785;55.566;38.058;2023-05-07T07:21:01;101560.38;;;9.99;41.35
71126;BME280;58785;55.566;38.058;2023-05-07T07:23:26;101575.94;;;9.67;41.50
71126;BME280;58785;55.566;38.058;2023-05-07T07:25:52;101564.81;;;9.35;42.24
71126;BME280;58785;55.566;38.058;2023-05-07T07:28:21;101573.72;;;9.21;42.20
71126;BME280;58785;55.566;38.058;2023-05-07T07:30:47;101570.66;;;9.28;42.20
71126;BME280;58785;55.566;38.058;2023-05-07T07:33:12;101566.47;;;9.76;41.71
71126;BME280;58785;55.566;38.058;2023-05-07T07:35:38;101566.81;;;10.46;40.88
71126;BME280;58785;55.566;38.058;2023-05-07T07:38:03;101562.66;;;10.79;40.23
71126;BME280;58785;55.566;38.058;2023-05-07T07:40:29;101545.69;;;11.04;39.91
71126;BME280;58785;55.566;38.058;2023-05-07T07:42:56;101567.41;;;11.10;38.80
71126;BME280;58785;55.566;38.058;2023-05-07T07:45:22;101560.09;;;11.01;39.29
71126;BME280;58785;55.566;38.058;2023-05-07T07:47:47;101555.53;;;11.14;37.70
71126;BME280;58785;55.566;38.058;2023-05-07T07:50:13;101560.94;;;11.26;38.40
71126;BME280;58785;55.566;38.058;2023-05-07T07:52:39;101562.44;;;11.06;37.91
71126;BME280;58785;55.566;38.058;2023-05-07T07:55:05;101536.03;;;10.66;38.33
71126;BME280;58785;55.566;38.058;2023-05-07T07:57:31;101550.28;;;10.78;38.48
71126;BME280;58785;55.566;38.058;2023-05-07T07:59:57;101547.03;;;11.09;38.10
71126;BME280;58785;55.566;38.058;2023-05-07T08:02:22;101564.84;;;11.09;37.49
71126;BME280;58785;55.566;38.058;2023-05-07T08:04:48;101561.53;;;10.94;38.17
71126;BME280;58785;55.566;38.058;2023-05-07T08:07:14;101551.59;;;10.35;37.26
71126;BME280;58785;55.566;38.058;2023-05-07T08:09:40;101545.09;;;10.01;38.34
71126;BME280;58785;55.566;38.058;2023-05-07T08:12:07;101550.72;;;10.48;37.86
71126;BME280;58785;55.566;38.058;2023-05-07T08:14:33;101536.13;;;10.88;37.30
71126;BME280;58785;55.566;38.058;2023-05-07T08:16:59;101553.50;;;11.64;37.66
71126;BME280;58785;55.566;38.058;2023-05-07T08:19:25;101542.13;;;11.96;37.52
71126;BME280;58785;55.566;38.058;2023-05-07T08:21:51;101546.97;;;11.91;37.45
71126;BME280;58785;55.566;38.058;2023-05-07T08:24:17;101561.00;;;11.59;36.90
71126;BME280;58785;55.566;38.058;2023-05-07T08:26:44;101541.38;;;11.25;37.19
71126;BME280;58785;55.566;38.058;2023-05-07T08:29:10;101556.88;;;10.85;36.93
71126;BME280;58785;55.566;38.058;2023-05-07T08:31:37;101549.19;;;10.56;37.94
71126;BME280;58785;55.566;38.058;2023-05-07T08:34:06;101547.88;;;10.62;37.77
71126;BME280;58785;55.566;38.058;2023-05-07T08:36:32;101528.88;;;10.30;37.81
71126;BME280;58785;55.566;38.058;2023-05-07T08:38:57;101548.97;;;10.23;37.70
71126;BME280;58785;55.566;38.058;2023-05-07T08:41:23;101547.25;;;9.96;37.97
71126;BME280;58785;55.566;38.058;2023-05-07T08:43:50;101552.16;;;10.15;37.52
71126;BME280;58785;55.566;38.058;2023-05-07T08:46:25;101540.84;;;10.61;37.29
71126;BME280;58785;55.566;38.058;2023-05-07T08:48:52;101536.75;;;11.16;36.87
71126;BME280;58785;55.566;38.058;2023-05-07T08:51:19;101549.88;;;11.30;36.20
71126;BME280;58785;55.566;38.058;2023-05-07T08:53:47;101544.88;;;11.14;35.88
71126;BME280;58785;55.566;38.058;2023-05-07T08:56:14;101548.50;;;10.89;36.76
71126;BME280;58785;55.566;38.058;2023-05-07T08:58:45;101548.28;;;10.32;36.66
71126;BME280;58785;55.566;38.058;2023-05-07T09:01:16;101547.16;;;9.98;36.90
71126;BME280;58785;55.566;38.058;2023-05-07T09:03:46;101546.63;;;9.67;37.70
71126;BME280;58785;55.566;38.058;2023-05-07T09:06:12;101548.78;;;9.62;38.44
71126;BME280;58785;55.566;38.058;2023-05-07T09:08:37;101561.22;;;9.62;38.48
71126;BME280;58785;55.566;38.058;2023-05-07T09:11:03;101551.13;;;9.54;38.47
71126;BME280;58785;55.566;38.058;2023-05-07T09:13:29;101556.22;;;9.70;38.23
71126;BME280;58785;55.566;38.058;2023-05-07T09:15:56;101539.91;;;9.87;37.90
71126;BME280;58785;55.566;38.058;2023-05-07T09:18:24;101543.69;;;10.21;37.47
71126;BME280;58785;55.566;38.058;2023-05-07T09:20:50;101538.56;;;10.68;37.42
71126;BME280;58785;55.566;38.058;2023-05-07T09:23:16;101532.38;;;11.15;37.61
71126;BME280;58785;55.566;38.058;2023-05-07T09:25:42;101544.19;;;11.35;36.38
71126;BME280;58785;55.566;38.058;2023-05-07T09:28:08;101558.19;;;11.03;35.96
71126;BME280;58785;55.566;38.058;2023-05-07T09:30:35;101540.34;;;10.80;35.85
71126;BME280;58785;55.566;38.058;2023-05-07T09:33:02;101548.47;;;10.54;36.14
71126;BME280;58785;55.566;38.058;2023-05-07T09:35:30;101535.06;;;10.43;35.51
71126;BME280;58785;55.566;38.058;2023-05-07T09:37:58;101534.81;;;10.46;35.25
71126;BME280;58785;55.566;38.058;2023-05-07T09:40:29;101533.91;;;10.58;35.78
71126;BME280;58785;55.566;38.058;2023-05-07T09:42:55;101529.91;;;10.77;35.93
71126;BME280;58785;55.566;38.058;2023-05-07T09:45:28;101535.44;;;10.50;35.01
71126;BME280;58785;55.566;38.058;2023-05-07T09:47:58;101546.28;;;10.10;36.26
71126;BME280;58785;55.566;38.058;2023-05-07T09:50:29;101546.50;;;9.82;36.68
71126;BME280;58785;55.566;38.058;2023-05-07T09:52:59;101549.28;;;9.80;36.75
71126;BME280;58785;55.566;38.058;2023-05-07T09:55:26;101535.66;;;9.85;36.59
71126;BME280;58785;55.566;38.058;2023-05-07T09:57:53;101532.25;;;9.95;36.47
71126;BME280;58785;55.566;38.058;2023-05-07T10:00:22;101532.19;;;10.21;35.73
71126;BME280;58785;55.566;38.058;2023-05-07T10:02:51;101533.00;;;10.47;35.26
71126;BME280;58785;55.566;38.058;2023-05-07T10:05:18;101531.31;;;10.46;35.04
71126;BME280;58785;55.566;38.058;2023-05-07T10:07:46;101536.69;;;10.57;35.87
71126;BME280;58785;55.566;38.058;2023-05-07T10:10:12;101538.22;;;10.48;35.60
71126;BME280;58785;55.566;38.058;2023-05-07T10:12:40;101528.69;;;10.33;35.04
71126;BME280;58785;55.566;38.058;2023-05-07T10:15:07;101534.75;;;10.35;35.04
71126;BME280;58785;55.566;38.058;2023-05-07T10:17:38;101534.72;;;10.48;35.02
71126;BME280;58785;55.566;38.058;2023-05-07T10:20:05;101531.47;;;10.55;35.11
71126;BME280;58785;55.566;38.058;2023-05-07T10:22:46;101518.31;;;10.65;35.68
71126;BME280;58785;55.566;38.058;2023-05-07T10:25:32;101525.88;;;10.95;35.90
71126;BME280;58785;55.566;38.058;2023-05-07T10:28:01;101531.44;;;11.27;35.49
71126;BME280;58785;55.566;38.058;2023-05-07T10:30:38;101533.72;;;11.20;35.07
71126;BME280;58785;55.566;38.058;2023-05-07T10:33:10;101536.25;;;10.87;35.28
71126;BME280;58785;55.566;38.058;2023-05-07T10:35:40;101531.88;;;10.62;35.16
71126;BME280;58785;55.566;38.058;2023-05-07T10:38:08;101533.56;;;10.39;35.62
71126;BME280;58785;55.566;38.058;2023-05-07T10:40:34;101532.63;;;10.15;35.69
71126;BME280;58785;55.566;38.058;2023-05-07T10:43:02;101550.13;;;10.06;36.06
71126;BME280;58785;55.566;38.058;2023-05-07T10:45:31;101535.03;;;9.94;36.14
71126;BME280;58785;55.566;38.058;2023-05-07T10:48:16;101519.34;;;9.76;34.81
71126;BME280;58785;55.566;38.058;2023-05-07T10:50:43;101534.81;;;9.84;35.48
71126;BME280;58785;55.566;38.058;2023-05-07T10:55:51;101528.88;;;10.30;35.32
71126;BME280;58785;55.566;38.058;2023-05-07T11:03:14;101527.19;;;11.01;34.88
71126;BME280;58785;55.566;38.058;2023-05-07T11:05:41;101523.78;;;11.22;35.16
71126;BME280;58785;55.566;38.058;2023-05-07T11:08:08;101533.88;;;10.95;34.85
71126;BME280;58785;55.566;38.058;2023-05-07T11:10:55;101533.06;;;10.58;34.46
71126;BME280;58785;55.566;38.058;2023-05-07T11:13:57;101531.88;;;10.62;34.60
71126;BME280;58785;55.566;38.058;2023-05-07T11:16:24;101527.91;;;10.68;34.64
71126;BME280;58785;55.566;38.058;2023-05-07T11:18:52;101541.69;;;10.61;34.58
71126;BME280;58785;55.566;38.058;2023-05-07T11:24:01;101536.38;;;10.25;35.17
71126;BME280;58785;55.566;38.058;2023-05-07T11:26:29;101540.00;;;10.24;35.16
71126;BME280;58785;55.566;38.058;2023-05-07T11:28:57;101539.91;;;10.13;34.83
71126;BME280;58785;55.566;38.058;2023-05-07T11:31:27;101535.72;;;10.08;35.44
71126;BME280;58785;55.566;38.058;2023-05-07T11:33:54;101533.38;;;10.17;35.26
71126;BME280;58785;55.566;38.058;2023-05-07T11:36:22;101522.50;;;10.32;35.11
71126;BME280;58785;55.566;38.058;2023-05-07T11:38:48;101528.88;;;10.67;35.76
71126;BME280;58785;55.566;38.058;2023-05-07T11:41:15;101531.81;;;10.99;35.29
71126;BME280;58785;55.566;38.058;2023-05-07T11:43:54;101528.72;;;11.16;34.73
71126;BME280;58785;55.566;38.058;2023-05-07T11:46:21;101536.84;;;11.14;35.08
71126;BME280;58785;55.566;38.058;2023-05-07T11:48:47;101525.88;;;10.95;34.78
71126;BME280;58785;55.566;38.058;2023-05-07T11:51:19;101524.13;;;10.83;35.28
71126;BME280;58785;55.566;38.058;2023-05-07T11:53:45;101528.94;;;10.78;34.35
71126;BME280;58785;55.566;38.058;2023-05-07T11:56:13;101533.81;;;10.60;35.34
71126;BME280;58785;55.566;38.058;2023-05-07T11:58:39;101534.88;;;10.57;35.35
71126;BME280;58785;55.566;38.058;2023-05-07T12:01:08;101536.88;;;10.67;34.82
71126;BME280;58785;55.566;38.058;2023-05-07T12:03:35;101521.38;;;10.72;34.98
71126;BME280;58785;55.566;38.058;2023-05-07T12:06:05;101528.25;;;10.87;35.50
71126;BME280;58785;55.566;38.058;2023-05-07T12:08:31;101526.94;;;10.92;34.97
71126;BME280;58785;55.566;38.058;2023-05-07T12:10:58;101528.66;;;10.93;35.17
71126;BME280;58785;55.566;38.058;2023-05-07T12:13:25;101529.63;;;10.92;35.02
71126;BME280;58785;55.566;38.058;2023-05-07T12:15:55;101516.00;;;10.84;35.29
71126;BME280;58785;55.566;38.058;2023-05-07T12:18:22;101523.09;;;10.73;35.27
71126;BME280;58785;55.566;38.058;2023-05-07T12:20:49;101523.59;;;10.54;35.07
71126;BME280;58785;55.566;38.058;2023-05-07T12:23:16;101530.84;;;10.52;35.29
71126;BME280;58785;55.566;38.058;2023-05-07T12:25:42;101527.78;;;10.45;35.08
71126;BME280;58785;55.566;38.058;2023-05-07T12:28:17;101522.22;;;10.48;35.03
71126;BME280;58785;55.566;38.058;2023-05-07T12:30:47;101541.47;;;10.64;34.30
71126;BME280;58785;55.566;38.058;2023-05-07T12:33:18;101525.97;;;10.70;34.29
71126;BME280;58785;55.566;38.058;2023-05-07T12:35:44;101520.75;;;10.68;35.21
71126;BME280;58785;55.566;38.058;2023-05-07T12:38:13;101513.78;;;10.78;35.47
71126;BME280;58785;55.566;38.058;2023-05-07T12:43:06;101523.19;;;10.95;35.54
71126;BME280;58785;55.566;38.058;2023-05-07T12:45:37;101516.16;;;10.94;35.54
71126;BME280;58785;55.566;38.058;2023-05-07T12:48:04;101511.25;;;10.88;35.16
71126;BME280;58785;55.566;38.058;2023-05-07T12:50:33;101526.66;;;10.84;34.97
71126;BME280;58785;55.566;38.058;2023-05-07T12:52:59;101514.16;;;10.61;34.56
71126;BME280;58785;55.566;38.058;2023-05-07T12:55:25;101518.34;;;10.28;33.92
71126;BME280;58785;55.566;38.058;2023-05-07T12:57:53;101521.25;;;10.13;34.65